sensor_id;sensor_type;location;lat;lon;timestamp;temperature;humidity
21602;DHT22;10963;50.934;4.668;2023-03-23T00:01:20;13.30;99.90
21602;DHT22;10963;50.934;4.668;2023-03-23T00:03:53;13.30;99.90
21602;DHT22;10963;50.934;4.668;2023-03-23T00:06:24;13.30;99.90
21602;DHT22;10963;50.934;4.668;2023-03-23T00:08:51;13.50;99.90
21602;DHT22;10963;50.934;4.668;2023-03-23T00:11:23;13.50;99.90
21602;DHT22;10963;50.934;4.668;2023-03-23T00:13:52;13.40;99.90
21602;DHT22;10963;50.934;4.668;2023-03-23T00:16:22;13.40;99.90
21602;DHT22;10963;50.934;4.668;2023-03-23T00:18:55;13.40;99.90
21602;DHT22;10963;50.934;4.668;2023-03-23T00:21:23;13.50;99.90
21602;DHT22;10963;50.934;4.668;2023-03-23T00:23:51;13.40;99.90
21602;DHT22;10963;50.934;4.668;2023-03-23T00:26:16;13.30;99.90
21602;DHT22;10963;50.934;4.668;2023-03-23T00:28:42;13.40;99.90
21602;DHT22;10963;50.934;4.668;2023-03-23T00:31:09;13.40;99.90
21602;DHT22;10963;50.934;4.668;2023-03-23T00:33:38;13.40;99.90
21602;DHT22;10963;50.934;4.668;2023-03-23T00:36:09;13.40;99.90
21602;DHT22;10963;50.934;4.668;2023-03-23T00:38:41;13.50;99.90
21602;DHT22;10963;50.934;4.668;2023-03-23T00:41:09;13.40;99.90
21602;DHT22;10963;50.934;4.668;2023-03-23T00:43:37;13.50;99.90
21602;DHT22;10963;50.934;4.668;2023-03-23T00:46:05;13.40;99.90
21602;DHT22;10963;50.934;4.668;2023-03-23T00:48:38;13.40;99.90
21602;DHT22;10963;50.934;4.668;2023-03-23T00:51:10;13.30;99.90
21602;DHT22;10963;50.934;4.668;2023-03-23T00:53:38;13.40;99.90
21602;DHT22;10963;50.934;4.668;2023-03-23T00:56:05;13.40;99.90
21602;DHT22;10963;50.934;4.668;2023-03-23T00:58:31;13.40;99.90
21602;DHT22;10963;50.934;4.668;2023-03-23T01:00:57;13.40;99.90
21602;DHT22;10963;50.934;4.668;2023-03-23T01:03:25;13.40;99.90
21602;DHT22;10963;50.934;4.668;2023-03-23T01:05:53;13.40;99.90
21602;DHT22;10963;50.934;4.668;2023-03-23T01:08:26;13.40;99.90
21602;DHT22;10963;50.934;4.668;2023-03-23T01:11:02;13.50;99.90
21602;DHT22;10963;50.934;4.668;2023-03-23T01:13:31;13.50;99.90
21602;DHT22;10963;50.934;4.668;2023-03-23T01:15:57;13.40;99.90
21602;DHT22;10963;50.934;4.668;2023-03-23T01:18:22;13.40;99.90
21602;DHT22;10963;50.934;4.668;2023-03-23T01:20:48;13.40;99.90
21602;DHT22;10963;50.934;4.668;2023-03-23T01:23:14;13.40;99.90
21602;DHT22;10963;50.934;4.668;2023-03-23T01:25:42;13.40;99.90
21602;DHT22;10963;50.934;4.668;2023-03-23T01:28:08;13.40;99.90
21602;DHT22;10963;50.934;4.668;2023-03-23T01:30:35;13.40;99.90
21602;DHT22;10963;50.934;4.668;2023-03-23T01:33:01;13.40;99.90
21602;DHT22;10963;50.934;4.668;2023-03-23T01:35:27;13.40;99.90
21602;DHT22;10963;50.934;4.668;2023-03-23T01:37:55;13.50;99.90
21602;DHT22;10963;50.934;4.668;2023-03-23T01:40:21;13.50;99.90
21602;DHT22;10963;50.934;4.668;2023-03-23T01:42:47;13.40;99.90
21602;DHT22;10963;50.934;4.668;2023-03-23T01:45:48;13.40;99.90
21602;DHT22;10963;50.934;4.668;2023-03-23T01:48:34;13.50;99.90
21602;DHT22;10963;50.934;4.668;2023-03-23T01:51:16;13.50;99.90
21602;DHT22;10963;50.934;4.668;2023-03-23T01:53:51;13.40;99.90
21602;DHT22;10963;50.934;4.668;2023-03-23T01:56:20;13.40;99.90
21602;DHT22;10963;50.934;4.668;2023-03-23T01:58:51;13.30;99.90
21602;DHT22;10963;50.934;4.668;2023-03-23T02:01:20;13.30;99.90
21602;DHT22;10963;50.934;4.668;2023-03-23T02:03:50;13.30;99.90
21602;DHT22;10963;50.934;4.668;2023-03-23T02:06:21;13.30;99.90
21602;DHT22;10963;50.934;4.668;2023-03-23T02:08:51;13.30;99.90
21602;DHT22;10963;50.934;4.668;2023-03-23T02:11:19;13.30;99.90
21602;DHT22;10963;50.934;4.668;2023-03-23T02:13:46;13.30;99.90
21602;DHT22;10963;50.934;4.668;2023-03-23T02:27:02;13.40;99.90
21602;DHT22;10963;50.934;4.668;2023-03-23T02:34:52;13.30;99.90
21602;DHT22;10963;50.934;4.668;2023-03-23T02:37:36;13.40;99.90
21602;DHT22;10963;50.934;4.668;2023-03-23T02:40:07;13.40;99.90
21602;DHT22;10963;50.934;4.668;2023-03-23T02:42:39;13.50;99.90
21602;DHT22;10963;50.934;4.668;2023-03-23T02:45:12;13.60;99.90
21602;DHT22;10963;50.934;4.668;2023-03-23T02:47:39;13.60;99.90
21602;DHT22;10963;50.934;4.668;2023-03-23T02:50:11;13.60;99.90
21602;DHT22;10963;50.934;4.668;2023-03-23T02:52:40;13.60;99.90
21602;DHT22;10963;50.934;4.668;2023-03-23T02:55:07;13.60;99.90
21602;DHT22;10963;50.934;4.668;2023-03-23T02:57:37;13.60;99.90
21602;DHT22;10963;50.934;4.668;2023-03-23T03:00:05;13.70;99.90
21602;DHT22;10963;50.934;4.668;2023-03-23T03:02:37;13.80;99.90
21602;DHT22;10963;50.934;4.668;2023-03-23T03:08:06;13.70;99.90
21602;DHT22;10963;50.934;4.668;2023-03-23T03:19:14;13.70;99.90
21602;DHT22;10963;50.934;4.668;2023-03-23T03:21:46;13.60;99.90
21602;DHT22;10963;50.934;4.668;2023-03-23T03:24:17;13.50;99.90
21602;DHT22;10963;50.934;4.668;2023-03-23T03:26:48;13.50;99.90
21602;DHT22;10963;50.934;4.668;2023-03-23T03:29:23;13.40;99.90
21602;DHT22;10963;50.934;4.668;2023-03-23T03:31:52;13.50;99.90
21602;DHT22;10963;50.934;4.668;2023-03-23T03:34:21;13.60;99.90
21602;DHT22;10963;50.934;4.668;2023-03-23T03:36:51;13.50;99.90
21602;DHT22;10963;50.934;4.668;2023-03-23T03:39:18;13.50;99.90
21602;DHT22;10963;50.934;4.668;2023-03-23T03:41:48;13.60;99.90
21602;DHT22;10963;50.934;4.668;2023-03-23T03:44:14;13.60;99.90
21602;DHT22;10963;50.934;4.668;2023-03-23T03:46:41;13.40;99.90
21602;DHT22;10963;50.934;4.668;2023-03-23T03:49:09;13.50;99.90
21602;DHT22;10963;50.934;4.668;2023-03-23T03:51:39;13.50;99.90
21602;DHT22;10963;50.934;4.668;2023-03-23T03:54:06;13.40;99.90
21602;DHT22;10963;50.934;4.668;2023-03-23T03:56:34;13.30;99.90
21602;DHT22;10963;50.934;4.668;2023-03-23T03:59:07;13.30;99.90
21602;DHT22;10963;50.934;4.668;2023-03-23T04:01:37;13.30;99.90
21602;DHT22;10963;50.934;4.668;2023-03-23T04:04:03;13.30;99.90
21602;DHT22;10963;50.934;4.668;2023-03-23T04:06:30;13.30;99.90
21602;DHT22;10963;50.934;4.668;2023-03-23T04:09:01;13.30;99.90
21602;DHT22;10963;50.934;4.668;2023-03-23T04:11:31;13.40;99.90
21602;DHT22;10963;50.934;4.668;2023-03-23T04:13:56;13.30;99.90
21602;DHT22;10963;50.934;4.668;2023-03-23T04:16:27;13.30;99.90
21602;DHT22;10963;50.934;4.668;2023-03-23T04:18:55;13.30;99.90
21602;DHT22;10963;50.934;4.668;2023-03-23T04:21:21;13.30;99.90
21602;DHT22;10963;50.934;4.668;2023-03-23T04:23:47;13.20;99.90
21602;DHT22;10963;50.934;4.668;2023-03-23T04:26:15;13.20;99.90
21602;DHT22;10963;50.934;4.668;2023-03-23T04:28:41;13.20;99.90
21602;DHT22;10963;50.934;4.668;2023-03-23T04:31:07;13.20;99.90
21602;DHT22;10963;50.934;4.668;2023-03-23T04:33:36;13.30;99.90
21602;DHT22;10963;50.934;4.668;2023-03-23T04:36:02;13.40;99.90
21602;DHT22;10963;50.934;4.668;2023-03-23T04:38:31;13.40;99.90
21602;DHT22;10963;50.934;4.668;2023-03-23T04:40:58;13.40;99.90
21602;DHT22;10963;50.934;4.668;2023-03-23T04:43:28;13.40;99.90
21602;DHT22;10963;50.934;4.668;2023-03-23T04:46:01;13.40;99.90
21602;DHT22;10963;50.934;4.668;2023-03-23T04:48:30;13.40;99.90
21602;DHT22;10963;50.934;4.668;2023-03-23T04:51:01;13.50;99.90
21602;DHT22;10963;50.934;4.668;2023-03-23T04:53:30;13.40;99.90
21602;DHT22;10963;50.934;4.668;2023-03-23T04:55:56;13.30;99.90
21602;DHT22;10963;50.934;4.668;2023-03-23T04:58:22;13.40;99.90
21602;DHT22;10963;50.934;4.668;2023-03-23T05:00:54;13.40;99.90
21602;DHT22;10963;50.934;4.668;2023-03-23T05:03:20;13.40;99.90
21602;DHT22;10963;50.934;4.668;2023-03-23T05:05:47;13.40;99.90
21602;DHT22;10963;50.934;4.668;2023-03-23T05:08:18;13.40;99.90
21602;DHT22;10963;50.934;4.668;2023-03-23T05:10:50;13.30;99.90
21602;DHT22;10963;50.934;4.668;2023-03-23T05:13:17;13.20;99.90
21602;DHT22;10963;50.934;4.668;2023-03-23T05:15:48;13.20;99.90
21602;DHT22;10963;50.934;4.668;2023-03-23T05:18:14;13.20;99.90
21602;DHT22;10963;50.934;4.668;2023-03-23T05:20:40;13.10;99.90
21602;DHT22;10963;50.934;4.668;2023-03-23T05:23:11;13.10;99.90
21602;DHT22;10963;50.934;4.668;2023-03-23T05:25:41;13.10;99.90
21602;DHT22;10963;50.934;4.668;2023-03-23T05:28:10;13.10;99.90
21602;DHT22;10963;50.934;4.668;2023-03-23T05:30:38;13.10;99.90
21602;DHT22;10963;50.934;4.668;2023-03-23T05:33:07;13.10;99.90
21602;DHT22;10963;50.934;4.668;2023-03-23T05:35:35;13.00;99.90
21602;DHT22;10963;50.934;4.668;2023-03-23T05:38:04;13.10;99.90
21602;DHT22;10963;50.934;4.668;2023-03-23T05:40:30;13.00;99.90
21602;DHT22;10963;50.934;4.668;2023-03-23T05:42:58;12.90;99.90
21602;DHT22;10963;50.934;4.668;2023-03-23T05:45:25;12.90;99.90
21602;DHT22;10963;50.934;4.668;2023-03-23T05:47:52;12.90;99.90
21602;DHT22;10963;50.934;4.668;2023-03-23T05:50:20;12.90;99.90
21602;DHT22;10963;50.934;4.668;2023-03-23T05:52:46;12.90;99.90
21602;DHT22;10963;50.934;4.668;2023-03-23T05:55:16;12.90;99.90
21602;DHT22;10963;50.934;4.668;2023-03-23T05:57:45;13.00;99.90
21602;DHT22;10963;50.934;4.668;2023-03-23T06:00:13;12.90;99.90
21602;DHT22;10963;50.934;4.668;2023-03-23T06:02:40;12.90;99.90
21602;DHT22;10963;50.934;4.668;2023-03-23T06:05:10;12.80;99.90
21602;DHT22;10963;50.934;4.668;2023-03-23T06:07:36;12.90;99.90
21602;DHT22;10963;50.934;4.668;2023-03-23T06:10:04;12.90;99.90
21602;DHT22;10963;50.934;4.668;2023-03-23T06:12:36;12.90;99.90
21602;DHT22;10963;50.934;4.668;2023-03-23T06:15:02;12.80;99.90
21602;DHT22;10963;50.934;4.668;2023-03-23T06:17:30;12.80;99.90
21602;DHT22;10963;50.934;4.668;2023-03-23T06:19:58;12.80;99.90
21602;DHT22;10963;50.934;4.668;2023-03-23T06:22:27;12.80;99.90
21602;DHT22;10963;50.934;4.668;2023-03-23T06:24:53;12.80;99.90
21602;DHT22;10963;50.934;4.668;2023-03-23T06:27:24;12.80;99.90
21602;DHT22;10963;50.934;4.668;2023-03-23T06:29:54;12.90;99.90
21602;DHT22;10963;50.934;4.668;2023-03-23T06:32:22;13.00;99.90
21602;DHT22;10963;50.934;4.668;2023-03-23T06:34:53;13.00;99.90
21602;DHT22;10963;50.934;4.668;2023-03-23T06:37:22;13.10;99.90
21602;DHT22;10963;50.934;4.668;2023-03-23T06:39:51;13.10;99.90
21602;DHT22;10963;50.934;4.668;2023-03-23T06:42:17;13.20;99.90
21602;DHT22;10963;50.934;4.668;2023-03-23T06:44:43;13.20;99.90
21602;DHT22;10963;50.934;4.668;2023-03-23T06:47:09;13.20;99.90
21602;DHT22;10963;50.934;4.668;2023-03-23T06:49:35;13.10;99.90
21602;DHT22;10963;50.934;4.668;2023-03-23T06:52:01;13.10;99.90
21602;DHT22;10963;50.934;4.668;2023-03-23T06:54:29;13.10;99.90
21602;DHT22;10963;50.934;4.668;2023-03-23T06:56:55;13.10;99.90
21602;DHT22;10963;50.934;4.668;2023-03-23T06:59:21;13.20;99.90
21602;DHT22;10963;50.934;4.668;2023-03-23T07:01:46;13.20;99.90
21602;DHT22;10963;50.934;4.668;2023-03-23T07:04:14;13.20;99.90
21602;DHT22;10963;50.934;4.668;2023-03-23T07:06:42;13.30;99.90
21602;DHT22;10963;50.934;4.668;2023-03-23T07:09:10;13.30;99.90
21602;DHT22;10963;50.934;4.668;2023-03-23T07:11:38;13.20;99.90
21602;DHT22;10963;50.934;4.668;2023-03-23T07:14:04;13.20;99.90
21602;DHT22;10963;50.934;4.668;2023-03-23T07:16:30;13.10;99.90
21602;DHT22;10963;50.934;4.668;2023-03-23T07:19:00;13.20;99.90
21602;DHT22;10963;50.934;4.668;2023-03-23T07:21:28;13.50;99.90
21602;DHT22;10963;50.934;4.668;2023-03-23T07:23:54;13.20;99.90
21602;DHT22;10963;50.934;4.668;2023-03-23T07:26:20;12.70;99.90
21602;DHT22;10963;50.934;4.668;2023-03-23T07:28:45;12.50;99.90
21602;DHT22;10963;50.934;4.668;2023-03-23T07:31:14;12.30;99.90
21602;DHT22;10963;50.934;4.668;2023-03-23T07:33:40;12.10;99.90
21602;DHT22;10963;50.934;4.668;2023-03-23T07:36:09;12.10;99.90
21602;DHT22;10963;50.934;4.668;2023-03-23T07:38:35;12.00;99.90
21602;DHT22;10963;50.934;4.668;2023-03-23T07:41:05;11.90;99.90
21602;DHT22;10963;50.934;4.668;2023-03-23T07:43:30;11.80;99.90
21602;DHT22;10963;50.934;4.668;2023-03-23T07:46:01;11.70;99.90
21602;DHT22;10963;50.934;4.668;2023-03-23T07:48:29;11.60;99.90
21602;DHT22;10963;50.934;4.668;2023-03-23T07:50:58;11.50;99.90
21602;DHT22;10963;50.934;4.668;2023-03-23T07:53:23;11.40;99.90
21602;DHT22;10963;50.934;4.668;2023-03-23T07:55:49;11.30;99.90
21602;DHT22;10963;50.934;4.668;2023-03-23T07:58:17;11.40;99.90
21602;DHT22;10963;50.934;4.668;2023-03-23T08:00:46;11.40;99.90
21602;DHT22;10963;50.934;4.668;2023-03-23T08:03:14;11.30;99.90
21602;DHT22;10963;50.934;4.668;2023-03-23T08:05:43;11.30;99.90
21602;DHT22;10963;50.934;4.668;2023-03-23T08:08:09;11.30;99.90
21602;DHT22;10963;50.934;4.668;2023-03-23T08:10:37;11.50;99.90
21602;DHT22;10963;50.934;4.668;2023-03-23T08:13:06;11.50;99.90
21602;DHT22;10963;50.934;4.668;2023-03-23T08:15:34;11.60;99.90
21602;DHT22;10963;50.934;4.668;2023-03-23T08:18:05;11.70;99.90
21602;DHT22;10963;50.934;4.668;2023-03-23T08:20:33;11.80;99.90
21602;DHT22;10963;50.934;4.668;2023-03-23T08:23:03;11.90;99.90
21602;DHT22;10963;50.934;4.668;2023-03-23T08:25:31;12.10;99.90
21602;DHT22;10963;50.934;4.668;2023-03-23T08:27:57;12.20;99.90
21602;DHT22;10963;50.934;4.668;2023-03-23T08:30:24;12.30;99.90
21602;DHT22;10963;50.934;4.668;2023-03-23T08:32:51;12.30;99.90
21602;DHT22;10963;50.934;4.668;2023-03-23T08:35:18;12.30;99.90
21602;DHT22;10963;50.934;4.668;2023-03-23T08:37:47;12.20;99.90
21602;DHT22;10963;50.934;4.668;2023-03-23T08:40:17;12.40;99.90
21602;DHT22;10963;50.934;4.668;2023-03-23T08:42:45;12.40;99.90
21602;DHT22;10963;50.934;4.668;2023-03-23T08:45:14;12.60;99.90
21602;DHT22;10963;50.934;4.668;2023-03-23T08:47:41;12.70;99.90
21602;DHT22;10963;50.934;4.668;2023-03-23T08:50:10;12.70;99.90
21602;DHT22;10963;50.934;4.668;2023-03-23T08:52:39;12.40;99.90
21602;DHT22;10963;50.934;4.668;2023-03-23T08:55:05;12.20;99.90
21602;DHT22;10963;50.934;4.668;2023-03-23T08:57:36;12.30;99.90
21602;DHT22;10963;50.934;4.668;2023-03-23T09:00:05;12.40;99.90
21602;DHT22;10963;50.934;4.668;2023-03-23T09:02:40;12.40;99.90
21602;DHT22;10963;50.934;4.668;2023-03-23T09:05:06;12.40;99.90
21602;DHT22;10963;50.934;4.668;2023-03-23T09:07:32;12.50;99.90
21602;DHT22;10963;50.934;4.668;2023-03-23T09:10:00;12.40;99.90
21602;DHT22;10963;50.934;4.668;2023-03-23T09:12:28;12.30;99.90
21602;DHT22;10963;50.934;4.668;2023-03-23T09:14:55;12.40;99.90
21602;DHT22;10963;50.934;4.668;2023-03-23T09:17:23;12.60;99.90
21602;DHT22;10963;50.934;4.668;2023-03-23T09:19:48;12.80;99.90
21602;DHT22;10963;50.934;4.668;2023-03-23T09:22:14;12.90;99.90
21602;DHT22;10963;50.934;4.668;2023-03-23T09:24:45;12.70;99.90
21602;DHT22;10963;50.934;4.668;2023-03-23T09:27:11;12.60;99.90
21602;DHT22;10963;50.934;4.668;2023-03-23T09:29:37;12.40;99.90
21602;DHT22;10963;50.934;4.668;2023-03-23T09:32:06;12.40;99.90
21602;DHT22;10963;50.934;4.668;2023-03-23T09:34:33;12.40;99.90
21602;DHT22;10963;50.934;4.668;2023-03-23T09:37:01;12.30;99.90
21602;DHT22;10963;50.934;4.668;2023-03-23T09:39:30;12.40;99.90
21602;DHT22;10963;50.934;4.668;2023-03-23T09:45:08;12.30;99.90
21602;DHT22;10963;50.934;4.668;2023-03-23T09:50:31;12.50;99.90
21602;DHT22;10963;50.934;4.668;2023-03-23T09:53:07;12.80;99.90
21602;DHT22;10963;50.934;4.668;2023-03-23T09:55:35;12.80;99.90
21602;DHT22;10963;50.934;4.668;2023-03-23T09:58:18;12.70;99.90
21602;DHT22;10963;50.934;4.668;2023-03-23T10:00:57;12.70;99.90
21602;DHT22;10963;50.934;4.668;2023-03-23T10:03:32;12.90;99.90
21602;DHT22;10963;50.934;4.668;2023-03-23T10:06:00;13.20;99.90
21602;DHT22;10963;50.934;4.668;2023-03-23T10:08:29;13.30;99.90
21602;DHT22;10963;50.934;4.668;2023-03-23T10:16:53;13.50;99.90
21602;DHT22;10963;50.934;4.668;2023-03-23T10:21:59;13.90;99.90
21602;DHT22;10963;50.934;4.668;2023-03-23T10:24:35;14.00;99.90
21602;DHT22;10963;50.934;4.668;2023-03-23T10:30:13;14.50;99.90
21602;DHT22;10963;50.934;4.668;2023-03-23T10:33:01;14.30;99.90
21602;DHT22;10963;50.934;4.668;2023-03-23T10:35:43;14.60;99.90
21602;DHT22;10963;50.934;4.668;2023-03-23T10:38:17;14.80;99.90
21602;DHT22;10963;50.934;4.668;2023-03-23T10:40:53;15.20;99.90
21602;DHT22;10963;50.934;4.668;2023-03-23T10:43:20;15.40;99.90
21602;DHT22;10963;50.934;4.668;2023-03-23T10:45:50;15.40;99.90
21602;DHT22;10963;50.934;4.668;2023-03-23T10:48:27;15.20;99.90
21602;DHT22;10963;50.934;4.668;2023-03-23T10:50:57;15.10;99.90
21602;DHT22;10963;50.934;4.668;2023-03-23T10:53:31;15.00;99.90
21602;DHT22;10963;50.934;4.668;2023-03-23T10:55:58;15.00;99.90
21602;DHT22;10963;50.934;4.668;2023-03-23T10:58:32;14.80;99.90
21602;DHT22;10963;50.934;4.668;2023-03-23T11:01:04;15.30;99.90
21602;DHT22;10963;50.934;4.668;2023-03-23T11:06:03;15.90;99.90
21602;DHT22;10963;50.934;4.668;2023-03-23T11:08:58;16.20;99.90
21602;DHT22;10963;50.934;4.668;2023-03-23T11:11:28;16.00;99.90
21602;DHT22;10963;50.934;4.668;2023-03-23T11:16:32;16.20;99.90
21602;DHT22;10963;50.934;4.668;2023-03-23T11:19:13;16.10;99.90
21602;DHT22;10963;50.934;4.668;2023-03-23T11:21:39;16.00;99.90
21602;DHT22;10963;50.934;4.668;2023-03-23T11:24:07;15.90;99.90
21602;DHT22;10963;50.934;4.668;2023-03-23T11:26:37;15.90;99.90
21602;DHT22;10963;50.934;4.668;2023-03-23T11:29:25;15.90;99.90
21602;DHT22;10963;50.934;4.668;2023-03-23T11:32:10;16.00;99.90
21602;DHT22;10963;50.934;4.668;2023-03-23T11:34:48;16.00;99.90
21602;DHT22;10963;50.934;4.668;2023-03-23T11:43:00;16.20;99.90
21602;DHT22;10963;50.934;4.668;2023-03-23T11:45:45;16.30;99.90
21602;DHT22;10963;50.934;4.668;2023-03-23T11:51:08;16.70;99.90
21602;DHT22;10963;50.934;4.668;2023-03-23T11:56:34;16.20;99.90
21602;DHT22;10963;50.934;4.668;2023-03-23T11:59:01;16.00;99.90
21602;DHT22;10963;50.934;4.668;2023-03-23T12:26:23;16.10;99.90
21602;DHT22;10963;50.934;4.668;2023-03-23T12:28:59;16.30;99.90
21602;DHT22;10963;50.934;4.668;2023-03-23T12:31:36;16.30;99.90
21602;DHT22;10963;50.934;4.668;2023-03-23T12:34:10;16.30;99.90
21602;DHT22;10963;50.934;4.668;2023-03-23T12:37:24;16.40;99.90
21602;DHT22;10963;50.934;4.668;2023-03-23T12:45:18;16.50;99.90
21602;DHT22;10963;50.934;4.668;2023-03-23T12:50:40;16.70;99.90
21602;DHT22;10963;50.934;4.668;2023-03-23T12:53:28;16.60;99.90
21602;DHT22;10963;50.934;4.668;2023-03-23T12:56:17;16.70;99.90
21602;DHT22;10963;50.934;4.668;2023-03-23T12:58:46;16.60;99.90
21602;DHT22;10963;50.934;4.668;2023-03-23T13:01:18;16.80;99.90
21602;DHT22;10963;50.934;4.668;2023-03-23T13:09:07;17.00;99.90
21602;DHT22;10963;50.934;4.668;2023-03-23T13:11:39;16.80;99.90
21602;DHT22;10963;50.934;4.668;2023-03-23T13:23:09;16.40;99.90
21602;DHT22;10963;50.934;4.668;2023-03-23T13:28:17;16.20;99.90
21602;DHT22;10963;50.934;4.668;2023-03-23T13:31:12;16.20;99.90
21602;DHT22;10963;50.934;4.668;2023-03-23T13:33:43;16.50;99.90
21602;DHT22;10963;50.934;4.668;2023-03-23T13:36:14;16.70;99.90
21602;DHT22;10963;50.934;4.668;2023-03-23T13:38:52;16.90;99.90
21602;DHT22;10963;50.934;4.668;2023-03-23T13:41:21;17.00;99.90
21602;DHT22;10963;50.934;4.668;2023-03-23T13:43:51;17.00;99.90
21602;DHT22;10963;50.934;4.668;2023-03-23T13:49:44;16.60;99.90
21602;DHT22;10963;50.934;4.668;2023-03-23T13:51:47;16.60;99.90
21602;DHT22;10963;50.934;4.668;2023-03-23T13:54:40;16.60;99.90
21602;DHT22;10963;50.934;4.668;2023-03-23T14:00:24;16.80;99.90
21602;DHT22;10963;50.934;4.668;2023-03-23T14:02:50;16.80;99.90
21602;DHT22;10963;50.934;4.668;2023-03-23T14:07:57;16.70;99.90
21602;DHT22;10963;50.934;4.668;2023-03-23T14:10:32;16.60;99.90
21602;DHT22;10963;50.934;4.668;2023-03-23T14:13:02;16.50;99.90
21602;DHT22;10963;50.934;4.668;2023-03-23T14:15:30;16.50;99.90
21602;DHT22;10963;50.934;4.668;2023-03-23T14:17:56;16.50;99.90
21602;DHT22;10963;50.934;4.668;2023-03-23T14:20:36;16.70;99.90
21602;DHT22;10963;50.934;4.668;2023-03-23T14:23:02;16.90;99.90
21602;DHT22;10963;50.934;4.668;2023-03-23T14:25:30;16.50;99.90
21602;DHT22;10963;50.934;4.668;2023-03-23T14:27:59;16.60;99.90
21602;DHT22;10963;50.934;4.668;2023-03-23T14:30:35;16.40;99.90
21602;DHT22;10963;50.934;4.668;2023-03-23T14:33:06;16.30;99.90
21602;DHT22;10963;50.934;4.668;2023-03-23T14:35:36;16.40;99.90
21602;DHT22;10963;50.934;4.668;2023-03-23T14:38:06;16.40;99.90
21602;DHT22;10963;50.934;4.668;2023-03-23T14:40:36;16.30;99.90
21602;DHT22;10963;50.934;4.668;2023-03-23T14:43:04;16.30;99.90
21602;DHT22;10963;50.934;4.668;2023-03-23T14:45:32;16.10;99.90
21602;DHT22;10963;50.934;4.668;2023-03-23T14:48:00;16.20;99.90
21602;DHT22;10963;50.934;4.668;2023-03-23T14:53:22;16.30;99.90
21602;DHT22;10963;50.934;4.668;2023-03-23T14:55:53;16.20;99.90
21602;DHT22;10963;50.934;4.668;2023-03-23T14:58:21;16.20;99.90
21602;DHT22;10963;50.934;4.668;2023-03-23T15:01:00;16.40;99.90
21602;DHT22;10963;50.934;4.668;2023-03-23T15:03:37;16.50;99.90
21602;DHT22;10963;50.934;4.668;2023-03-23T15:06:13;16.60;99.90
21602;DHT22;10963;50.934;4.668;2023-03-23T15:08:40;16.30;99.90
21602;DHT22;10963;50.934;4.668;2023-03-23T15:13:48;15.70;99.90
21602;DHT22;10963;50.934;4.668;2023-03-23T15:16:28;15.70;99.90
21602;DHT22;10963;50.934;4.668;2023-03-23T15:21:55;15.70;99.90
21602;DHT22;10963;50.934;4.668;2023-03-23T15:24:25;15.60;99.90
21602;DHT22;10963;50.934;4.668;2023-03-23T15:29:45;15.70;99.90
21602;DHT22;10963;50.934;4.668;2023-03-23T15:32:19;15.70;99.90
21602;DHT22;10963;50.934;4.668;2023-03-23T15:34:45;15.80;99.90
21602;DHT22;10963;50.934;4.668;2023-03-23T15:39:50;15.70;99.90
21602;DHT22;10963;50.934;4.668;2023-03-23T15:42:32;15.70;99.90
21602;DHT22;10963;50.934;4.668;2023-03-23T15:52:44;15.90;99.90
21602;DHT22;10963;50.934;4.668;2023-03-23T15:55:29;15.80;99.90
21602;DHT22;10963;50.934;4.668;2023-03-23T15:57:57;15.80;99.90
21602;DHT22;10963;50.934;4.668;2023-03-23T16:00:27;15.90;99.90
21602;DHT22;10963;50.934;4.668;2023-03-23T16:03:00;15.80;99.90
21602;DHT22;10963;50.934;4.668;2023-03-23T16:05:29;15.90;99.90
21602;DHT22;10963;50.934;4.668;2023-03-23T16:07:55;15.80;99.90
21602;DHT22;10963;50.934;4.668;2023-03-23T16:10:27;15.80;99.90
21602;DHT22;10963;50.934;4.668;2023-03-23T16:12:55;15.80;99.90
21602;DHT22;10963;50.934;4.668;2023-03-23T16:15:21;15.80;99.90
21602;DHT22;10963;50.934;4.668;2023-03-23T16:17:50;15.80;99.90
21602;DHT22;10963;50.934;4.668;2023-03-23T16:20:20;15.70;99.90
21602;DHT22;10963;50.934;4.668;2023-03-23T16:22:47;15.80;99.90
21602;DHT22;10963;50.934;4.668;2023-03-23T16:25:14;15.80;99.90
21602;DHT22;10963;50.934;4.668;2023-03-23T16:27:41;15.80;99.90
21602;DHT22;10963;50.934;4.668;2023-03-23T16:30:17;15.80;99.90
21602;DHT22;10963;50.934;4.668;2023-03-23T16:32:43;15.90;99.90
21602;DHT22;10963;50.934;4.668;2023-03-23T16:35:09;15.90;99.90
21602;DHT22;10963;50.934;4.668;2023-03-23T16:37:38;15.80;99.90
21602;DHT22;10963;50.934;4.668;2023-03-23T16:40:07;15.70;99.90
21602;DHT22;10963;50.934;4.668;2023-03-23T16:42:33;15.70;99.90
21602;DHT22;10963;50.934;4.668;2023-03-23T16:45:02;15.80;99.90
21602;DHT22;10963;50.934;4.668;2023-03-23T16:47:32;15.80;99.90
21602;DHT22;10963;50.934;4.668;2023-03-23T16:49:58;15.80;99.90
21602;DHT22;10963;50.934;4.668;2023-03-23T16:52:24;15.60;99.90
21602;DHT22;10963;50.934;4.668;2023-03-23T16:54:49;15.60;99.90
21602;DHT22;10963;50.934;4.668;2023-03-23T16:57:15;15.50;99.90
21602;DHT22;10963;50.934;4.668;2023-03-23T16:59:43;15.50;99.90
21602;DHT22;10963;50.934;4.668;2023-03-23T17:02:14;15.40;99.90
21602;DHT22;10963;50.934;4.668;2023-03-23T17:04:44;15.40;99.90
21602;DHT22;10963;50.934;4.668;2023-03-23T17:07:11;15.40;99.90
21602;DHT22;10963;50.934;4.668;2023-03-23T17:09:38;15.30;99.90
21602;DHT22;10963;50.934;4.668;2023-03-23T17:12:04;15.30;99.90
21602;DHT22;10963;50.934;4.668;2023-03-23T17:14:32;15.20;99.90
21602;DHT22;10963;50.934;4.668;2023-03-23T17:16:58;15.20;99.90
21602;DHT22;10963;50.934;4.668;2023-03-23T17:19:31;15.10;99.90
21602;DHT22;10963;50.934;4.668;2023-03-23T17:21:57;15.20;99.90
21602;DHT22;10963;50.934;4.668;2023-03-23T17:24:26;15.10;99.90
21602;DHT22;10963;50.934;4.668;2023-03-23T17:26:53;15.10;99.90
21602;DHT22;10963;50.934;4.668;2023-03-23T17:29:19;15.10;99.90
21602;DHT22;10963;50.934;4.668;2023-03-23T17:31:47;15.20;99.90
21602;DHT22;10963;50.934;4.668;2023-03-23T17:34:17;15.30;99.90
21602;DHT22;10963;50.934;4.668;2023-03-23T17:36:45;15.30;99.90
21602;DHT22;10963;50.934;4.668;2023-03-23T17:39:11;15.30;99.90
21602;DHT22;10963;50.934;4.668;2023-03-23T17:41:36;15.40;99.90
21602;DHT22;10963;50.934;4.668;2023-03-23T17:44:02;15.40;99.90
21602;DHT22;10963;50.934;4.668;2023-03-23T17:46:28;15.50;99.90
21602;DHT22;10963;50.934;4.668;2023-03-23T17:48:56;15.60;99.90
21602;DHT22;10963;50.934;4.668;2023-03-23T17:51:22;15.50;99.90
21602;DHT22;10963;50.934;4.668;2023-03-23T17:53:47;15.50;99.90
21602;DHT22;10963;50.934;4.668;2023-03-23T17:56:16;15.50;99.90
21602;DHT22;10963;50.934;4.668;2023-03-23T17:58:42;15.50;99.90
21602;DHT22;10963;50.934;4.668;2023-03-23T18:01:08;15.60;99.90
21602;DHT22;10963;50.934;4.668;2023-03-23T18:03:36;15.50;99.90
21602;DHT22;10963;50.934;4.668;2023-03-23T18:06:06;15.50;99.90
21602;DHT22;10963;50.934;4.668;2023-03-23T18:08:35;15.40;99.90